Decoded Metar for LFOC (CHATEAUDUN in FRANCE) (IATA:N/A) | Meteo·Mobile Aviation Weather
aviador You're here:

LFOC Decoded Metar

CHATEAUDUN in FRANCE
Report Time2019-09-21 09:30:00
UTC Time2019-09-21 09:47:12
Flight Rules vfr VFR
Wind150° at 06 kt
W.Decomp.*RWY 10: 3.8 kt HW 4.7 kt RCW
Visibility9999 m
Phenomena:N/A
Clouds:N/A
Expected CloudBase > 4,400 ft AGL from Temp-Dew spread
CeilingNone
Temp24°C (ISA +10)
Dew Point13°C (50% RH)
AAT22.7°C
QNH1013 hPa
Density Alt1,759 ft
Elevation417 ft
Report Wrong Elevation
Raw Report
METAR LFOC 210930Z AUTO 15006KT 120V180 CAVOK 24/13 Q1013=

Extra information for LFOC:More info

Metar Taf Metar & Taf Last 4 Metars F.Rules Stats Wind Profile Meteogram Temp Stats Airport Information Weather charts Add Link Nearby VenuesMetar ALERT Operation Metar Decoded Social comments